Time;durP1;ratioP1;P1;durP2;ratioP2;P2;SDS_P1;SDS_P2;PMS_P1;PMS_P2;Temp;Humidity;BMP_temperature;BMP_pressure;BME280_temperature;BME280_humidity;BME280_pressure;Samples;Min_cycle;Max_cycle;Signal;HPM_P1;HPM_P2
2022/02/06 00:00:53;;;;;;;37.35;21.00;;;;;;;;;;5114510;28;20024;-67
2022/02/06 00:03:19;;;;;;;40.67;20.77;;;;;;;;;;5114481;28;20020;-69
2022/02/06 00:05:48;;;;;;;40.42;19.83;;;;;;;;;;5095776;28;20039;-67
2022/02/06 00:08:14;;;;;;;34.40;19.40;;;;;;;;;;5095995;28;20028;-69
2022/02/06 00:10:41;;;;;;;43.70;22.98;;;;;;;;;;5114342;28;20031;-68
2022/02/06 00:13:07;;;;;;;48.40;23.85;;;;;;;;;;5113732;28;20024;-67
2022/02/06 00:15:34;;;;;;;43.83;22.33;;;;;;;;;;5114184;28;20131;-66
2022/02/06 00:18:00;;;;;;;40.40;20.40;;;;;;;;;;5095847;28;20059;-69
2022/02/06 00:20:32;;;;;;;37.55;21.30;;;;;;;;;;5114113;28;20086;-67
2022/02/06 00:23:02;;;;;;;34.30;17.95;;;;;;;;;;5114112;28;20118;-66
2022/02/06 00:41:30;;;;;;;87.97;40.95;;;;;;;;;;5113807;28;20030;-65
2022/02/06 00:43:56;;;;;;;92.22;42.60;;;;;;;;;;5113415;28;20380;-66
2022/02/06 00:46:23;;;;;;;118.32;53.35;;;;;;;;;;5113966;28;20026;-66
2022/02/06 00:48:56;;;;;;;99.07;45.90;;;;;;;;;;5095498;28;20072;-65
2022/02/06 00:51:33;;;;;;;114.65;52.10;;;;;;;;;;5113274;28;20047;-67
2022/02/06 00:54:00;;;;;;;121.63;57.20;;;;;;;;;;5095266;28;20039;-64
2022/02/06 00:56:27;;;;;;;127.50;59.10;;;;;;;;;;5113900;28;20103;-65
2022/02/06 00:58:54;;;;;;;87.93;42.58;;;;;;;;;;5094837;28;20026;-65
2022/02/06 01:01:20;;;;;;;104.60;48.38;;;;;;;;;;5113642;28;20458;-66
2022/02/06 01:03:47;;;;;;;84.13;39.78;;;;;;;;;;5095196;28;20023;-65
2022/02/06 01:06:13;;;;;;;72.60;38.78;;;;;;;;;;5113476;28;20419;-64
2022/02/06 01:08:40;;;;;;;91.60;44.95;;;;;;;;;;5113516;28;20028;-65
2022/02/06 01:11:09;;;;;;;106.85;49.22;;;;;;;;;;5112521;28;20031;-68
2022/02/06 01:13:55;;;;;;;88.97;45.95;;;;;;;;;;5094801;28;20031;-67
2022/02/06 01:16:32;;;;;;;80.40;39.92;;;;;;;;;;5113518;28;20024;-68
2022/02/06 01:21:49;;;;;;;90.15;41.78;;;;;;;;;;5113397;28;20110;-67
2022/02/06 01:24:40;;;;;;;86.22;37.83;;;;;;;;;;5112328;28;20039;-66
2022/02/06 01:27:12;;;;;;;74.95;37.97;;;;;;;;;;5116807;28;20020;-65
2022/02/06 01:29:51;;;;;;;92.90;42.00;;;;;;;;;;5117523;28;20028;-68
2022/02/06 01:32:22;;;;;;;90.15;43.50;;;;;;;;;;5099093;28;20034;-66
2022/02/06 01:34:59;;;;;;;92.68;44.17;;;;;;;;;;5117342;28;20036;-65
2022/02/06 01:40:09;;;;;;;88.90;39.85;;;;;;;;;;5117285;28;20454;-67
2022/02/06 01:42:46;;;;;;;90.25;41.33;;;;;;;;;;5117237;28;20020;-67
2022/02/06 02:02:03;;;;;;;88.38;39.88;;;;;;;;;;5116859;28;20088;-66
2022/02/06 02:04:49;;;;;;;86.22;42.10;;;;;;;;;;5098451;28;20034;-66
2022/02/06 02:07:57;;;;;;;89.55;44.38;;;;;;;;;;5116772;28;20023;-66
2022/02/06 02:13:03;;;;;;;82.72;41.53;;;;;;;;;;5116435;28;20080;-68
2022/02/06 02:23:37;;;;;;;116.47;53.35;;;;;;;;;;5116196;28;20050;-66
2022/02/06 02:47:22;;;;;;;138.10;63.88;;;;;;;;;;5116039;28;20031;-69
2022/02/06 02:50:01;;;;;;;161.20;72.53;;;;;;;;;;5097712;28;20032;-67
2022/02/06 02:52:57;;;;;;;125.63;63.15;;;;;;;;;;5115908;28;20024;-68
2022/02/06 02:58:23;;;;;;;126.28;58.28;;;;;;;;;;5115814;28;20509;-69
2022/02/06 03:05:44;;;;;;;121.53;58.78;;;;;;;;;;5115579;28;20122;-70
2022/02/06 03:08:11;;;;;;;127.75;58.22;;;;;;;;;;5115549;28;20368;-68
2022/02/06 03:10:38;;;;;;;121.25;60.08;;;;;;;;;;5115501;28;20102;-69
2022/02/06 03:13:08;;;;;;;142.95;65.80;;;;;;;;;;5097177;28;20080;-67
2022/02/06 03:15:48;;;;;;;135.00;67.95;;;;;;;;;;5096825;28;20403;-66
2022/02/06 03:18:18;;;;;;;187.93;84.85;;;;;;;;;;5096988;28;20020;-68
2022/02/06 03:20:45;;;;;;;191.45;86.13;;;;;;;;;;5114992;28;20391;-67
2022/02/06 03:23:12;;;;;;;169.75;80.78;;;;;;;;;;5096924;28;20081;-68
2022/02/06 03:25:49;;;;;;;155.43;75.15;;;;;;;;;;5096887;28;20032;-67
2022/02/06 03:28:16;;;;;;;134.30;62.28;;;;;;;;;;5115138;28;20030;-67
2022/02/06 03:30:42;;;;;;;128.70;63.05;;;;;;;;;;5115146;28;20077;-65
2022/02/06 03:33:09;;;;;;;140.52;65.90;;;;;;;;;;5096757;28;20073;-66
2022/02/06 03:35:35;;;;;;;137.65;65.85;;;;;;;;;;5096576;28;20392;-69
2022/02/06 03:38:01;;;;;;;155.90;71.13;;;;;;;;;;5114982;28;20471;-66
2022/02/06 03:40:32;;;;;;;159.68;74.82;;;;;;;;;;5114883;28;20015;-67
2022/02/06 03:43:09;;;;;;;167.32;78.53;;;;;;;;;;5114874;28;20464;-65
2022/02/06 03:46:44;;;;;;;156.55;72.90;;;;;;;;;;5114838;28;20106;-69
2022/02/06 03:48:43;;;;;;;169.60;78.53;;;;;;;;;;5100010;28;20117;-67
2022/02/06 03:51:18;;;;;;;192.90;86.38;;;;;;;;;;5114748;28;20479;-66
2022/02/06 03:53:45;;;;;;;166.05;76.93;;;;;;;;;;5114590;28;20031;-68
2022/02/06 03:56:12;;;;;;;175.18;81.65;;;;;;;;;;5114604;28;20467;-68
2022/02/06 03:58:38;;;;;;;170.38;79.53;;;;;;;;;;5096255;28;20023;-68
2022/02/06 04:01:04;;;;;;;182.65;86.60;;;;;;;;;;5096192;28;20119;-67
2022/02/06 04:03:31;;;;;;;186.55;89.18;;;;;;;;;;5114535;28;20107;-66
2022/02/06 04:05:57;;;;;;;198.85;93.20;;;;;;;;;;5096131;28;20136;-67
2022/02/06 04:08:24;;;;;;;179.30;85.18;;;;;;;;;;5114359;28;20765;-68
2022/02/06 04:10:52;;;;;;;203.90;95.32;;;;;;;;;;5114327;28;20023;-67
2022/02/06 04:13:23;;;;;;;184.93;90.47;;;;;;;;;;5095998;28;20112;-66
2022/02/06 04:15:56;;;;;;;189.10;89.23;;;;;;;;;;5114311;28;20051;-68
2022/02/06 04:18:35;;;;;;;169.23;79.95;;;;;;;;;;5095999;28;20380;-70
2022/02/06 04:21:02;;;;;;;155.50;73.35;;;;;;;;;;5114157;28;20083;-69
2022/02/06 04:23:30;;;;;;;148.98;73.78;;;;;;;;;;5095796;28;20024;-66
2022/02/06 04:25:56;;;;;;;131.25;65.13;;;;;;;;;;5114071;28;20035;-69
2022/02/06 04:28:22;;;;;;;126.35;62.20;;;;;;;;;;5114052;28;20107;-71
2022/02/06 04:30:49;;;;;;;115.50;58.17;;;;;;;;;;5095644;28;20475;-69
2022/02/06 04:33:15;;;;;;;114.13;57.45;;;;;;;;;;5113991;28;20055;-69
2022/02/06 04:35:41;;;;;;;114.45;55.10;;;;;;;;;;5113825;28;20483;-69
2022/02/06 05:16:09;;;;;;;51.60;24.65;;;;;;;;;;5073307;28;20094;-63
2022/02/06 05:29:33;;;;;;;84.80;37.90;;;;;;;;;;5072322;28;20032;-64
2022/02/06 05:34:49;;;;;;;93.75;42.47;;;;;;;;;;5043263;28;20378;-64
2022/02/06 05:37:15;;;;;;;94.90;42.97;;;;;;;;;;5072492;28;20073;-64
2022/02/06 05:39:41;;;;;;;82.13;38.05;;;;;;;;;;5072594;28;20047;-64
2022/02/06 05:42:08;;;;;;;87.50;38.20;;;;;;;;;;5054494;28;20111;-65
2022/02/06 05:44:35;;;;;;;94.65;41.00;;;;;;;;;;5072491;28;20067;-64
2022/02/06 05:47:05;;;;;;;91.97;40.20;;;;;;;;;;5054451;28;20561;-64
2022/02/06 05:49:31;;;;;;;70.47;34.72;;;;;;;;;;5072414;28;20424;-64
2022/02/06 05:51:57;;;;;;;64.80;33.63;;;;;;;;;;5072431;28;20109;-65
2022/02/06 05:54:23;;;;;;;65.95;31.08;;;;;;;;;;5072356;28;20063;-64
2022/02/06 05:56:49;;;;;;;60.10;29.50;;;;;;;;;;5072336;28;20055;-64
2022/02/06 05:59:16;;;;;;;64.68;29.40;;;;;;;;;;5072273;28;20377;-63
2022/02/06 06:01:42;;;;;;;62.03;30.73;;;;;;;;;;5054375;28;20120;-65
2022/02/06 06:04:08;;;;;;;62.83;30.42;;;;;;;;;;5072366;28;20072;-64
2022/02/06 06:06:36;;;;;;;59.22;29.20;;;;;;;;;;5072263;28;20433;-64
2022/02/06 06:09:02;;;;;;;66.10;31.20;;;;;;;;;;5072246;28;20048;-65
2022/02/06 06:11:28;;;;;;;76.80;36.28;;;;;;;;;;5054776;28;20445;-64
2022/02/06 06:13:54;;;;;;;92.88;39.90;;;;;;;;;;5057662;28;20404;-64
2022/02/06 06:16:21;;;;;;;94.70;43.33;;;;;;;;;;5076055;28;20131;-65
2022/02/06 06:18:47;;;;;;;115.50;49.80;;;;;;;;;;5075729;28;20103;-67
2022/02/06 06:21:13;;;;;;;103.13;47.47;;;;;;;;;;5075587;28;20024;-64
2022/02/06 06:23:43;;;;;;;118.78;54.58;;;;;;;;;;5075437;28;20430;-64
2022/02/06 06:26:15;;;;;;;118.30;56.10;;;;;;;;;;5057546;28;20465;-65
2022/02/06 06:28:41;;;;;;;;;;;;;;;;;;5057714;28;20032;-65
2022/02/06 06:31:07;;;;;;;107.85;51.35;;;;;;;;;;5057626;28;19904;-67
2022/02/06 06:33:33;;;;;;;102.47;49.25;;;;;;;;;;5057542;28;20032;-71
2022/02/06 06:35:59;;;;;;;101.85;49.63;;;;;;;;;;5057464;28;20040;-66
2022/02/06 06:38:26;;;;;;;101.45;49.40;;;;;;;;;;5075514;28;20111;-67
2022/02/06 06:40:53;;;;;;;105.45;51.50;;;;;;;;;;5075483;28;20116;-66
2022/02/06 06:43:19;;;;;;;101.70;52.22;;;;;;;;;;5057429;28;20452;-64
2022/02/06 06:45:46;;;;;;;107.30;50.58;;;;;;;;;;5075481;28;20040;-67
2022/02/06 06:48:12;;;;;;;101.60;51.80;;;;;;;;;;5057292;28;20035;-64
2022/02/06 06:50:38;;;;;;;100.35;51.80;;;;;;;;;;5057349;28;20027;-64
2022/02/06 06:53:06;;;;;;;102.72;50.78;;;;;;;;;;5056937;28;20078;-64
2022/02/06 06:55:35;;;;;;;114.45;54.55;;;;;;;;;;5057204;28;20047;-67
2022/02/06 06:58:12;;;;;;;100.70;50.45;;;;;;;;;;5075166;28;20032;-67
2022/02/06 07:00:56;;;;;;;97.57;48.53;;;;;;;;;;5075096;28;20032;-66
2022/02/06 07:03:22;;;;;;;93.40;48.22;;;;;;;;;;5075116;28;20521;-66
2022/02/06 07:05:49;;;;;;;92.57;46.45;;;;;;;;;;5075044;28;20032;-67
2022/02/06 07:08:16;;;;;;;105.75;49.08;;;;;;;;;;5074775;28;20078;-66
2022/02/06 07:10:43;;;;;;;116.85;53.65;;;;;;;;;;5056902;28;20033;-67
2022/02/06 07:13:09;;;;;;;102.70;50.53;;;;;;;;;;5074590;28;20032;-66
2022/02/06 07:15:36;;;;;;;112.63;55.95;;;;;;;;;;5056799;28;20087;-65
2022/02/06 07:18:02;;;;;;;121.03;60.83;;;;;;;;;;5056543;28;20032;-65
2022/02/06 07:20:30;;;;;;;121.28;65.15;;;;;;;;;;5074674;28;20033;-66
2022/02/06 07:22:56;;;;;;;128.45;66.43;;;;;;;;;;5074564;28;20023;-66
2022/02/06 07:25:22;;;;;;;114.90;62.30;;;;;;;;;;5074649;28;20115;-66
2022/02/06 07:27:49;;;;;;;121.10;63.97;;;;;;;;;;5074457;28;20021;-67
2022/02/06 07:30:16;;;;;;;104.82;57.08;;;;;;;;;;5074506;28;20043;-65
2022/02/06 07:32:44;;;;;;;105.03;57.05;;;;;;;;;;5056422;28;20472;-67
2022/02/06 07:35:10;;;;;;;106.53;56.72;;;;;;;;;;5077940;28;20054;-65
2022/02/06 07:37:37;;;;;;;111.68;59.03;;;;;;;;;;5082672;28;20028;-65
2022/02/06 07:40:04;;;;;;;85.18;43.42;;;;;;;;;;5056273;28;20036;-67
2022/02/06 07:42:31;;;;;;;80.70;39.60;;;;;;;;;;5056207;28;20039;-65
2022/02/06 07:44:57;;;;;;;96.60;48.45;;;;;;;;;;5056137;28;20028;-66
2022/02/06 07:47:24;;;;;;;118.97;60.55;;;;;;;;;;5055996;28;20066;-69
2022/02/06 07:49:52;;;;;;;110.63;56.88;;;;;;;;;;5061076;28;20111;-67
2022/02/06 07:52:19;;;;;;;109.60;52.67;;;;;;;;;;5078384;28;20078;-69
2022/02/06 07:54:45;;;;;;;85.88;42.38;;;;;;;;;;5073806;28;20036;-66
2022/02/06 07:57:12;;;;;;;74.53;37.33;;;;;;;;;;5073715;28;20036;-66
2022/02/06 07:59:38;;;;;;;71.88;34.00;;;;;;;;;;5039442;28;20029;-69
2022/02/06 08:02:06;;;;;;;54.92;30.40;;;;;;;;;;5073752;28;20103;-70
2022/02/06 08:04:33;;;;;;;55.83;28.08;;;;;;;;;;5073727;28;20028;-68
2022/02/06 08:06:59;;;;;;;54.92;28.02;;;;;;;;;;5073735;28;20095;-71
2022/02/06 08:11:58;;;;;;;50.95;27.17;;;;;;;;;;5073595;28;20044;-70
2022/02/06 08:15:06;;;;;;;53.25;26.88;;;;;;;;;;5072973;28;20382;-69
2022/02/06 08:17:13;;;;;;;49.30;24.27;;;;;;;;;;5062129;28;20045;-68
2022/02/06 08:19:39;;;;;;;45.60;24.52;;;;;;;;;;5073205;28;20452;-65
2022/02/06 08:22:05;;;;;;;50.90;25.70;;;;;;;;;;5073647;28;20036;-68
2022/02/06 08:24:32;;;;;;;45.53;25.20;;;;;;;;;;5073317;28;20028;-68
2022/02/06 08:26:58;;;;;;;44.35;23.00;;;;;;;;;;5055392;28;20424;-67
2022/02/06 08:29:25;;;;;;;45.70;24.13;;;;;;;;;;5073271;28;20123;-67
2022/02/06 08:31:51;;;;;;;37.60;19.02;;;;;;;;;;5073367;28;20449;-66
2022/02/06 08:34:17;;;;;;;33.47;17.90;;;;;;;;;;5072770;28;20040;-66
2022/02/06 08:36:43;;;;;;;30.42;15.98;;;;;;;;;;5073355;28;20028;-66
2022/02/06 08:39:10;;;;;;;34.53;17.92;;;;;;;;;;5055203;28;20064;-66
2022/02/06 08:41:36;;;;;;;36.40;16.85;;;;;;;;;;5073215;28;20024;-65
2022/02/06 08:44:03;;;;;;;36.33;18.52;;;;;;;;;;5072801;28;20513;-66
2022/02/06 08:46:30;;;;;;;27.50;15.05;;;;;;;;;;5073257;28;20714;-66
2022/02/06 08:48:56;;;;;;;31.73;15.63;;;;;;;;;;5071832;28;20059;-70
2022/02/06 08:51:23;;;;;;;34.35;17.08;;;;;;;;;;5072293;28;20051;-67
2022/02/06 08:53:49;;;;;;;40.45;18.08;;;;;;;;;;5072964;28;20068;-65
2022/02/06 08:56:15;;;;;;;35.72;18.23;;;;;;;;;;5054766;28;20036;-68
2022/02/06 08:58:42;;;;;;;32.58;17.58;;;;;;;;;;5054649;28;20024;-68
2022/02/06 09:01:08;;;;;;;25.23;13.55;;;;;;;;;;5054778;28;20032;-67
2022/02/06 09:03:34;;;;;;;32.00;14.93;;;;;;;;;;5072614;28;20519;-69
2022/02/06 09:06:00;;;;;;;36.10;16.08;;;;;;;;;;5072852;28;20021;-74
2022/02/06 09:08:26;;;;;;;37.42;15.50;;;;;;;;;;5054478;28;20029;-68
2022/02/06 09:10:52;;;;;;;34.35;16.23;;;;;;;;;;5072733;28;20491;-72
2022/02/06 09:13:19;;;;;;;36.65;18.83;;;;;;;;;;5054434;28;20028;-70
2022/02/06 09:15:45;;;;;;;42.03;19.45;;;;;;;;;;5072607;28;20037;-64
2022/02/06 09:18:11;;;;;;;26.27;13.30;;;;;;;;;;5072748;28;20476;-66
2022/02/06 09:20:38;;;;;;;29.85;13.43;;;;;;;;;;5072674;28;20082;-67
2022/02/06 09:23:04;;;;;;;19.13;9.93;;;;;;;;;;5072280;28;20398;-71
2022/02/06 09:25:30;;;;;;;20.00;10.77;;;;;;;;;;5073030;28;20075;-69
2022/02/06 09:27:56;;;;;;;22.00;9.00;;;;;;;;;;5072284;28;20031;-71
2022/02/06 09:30:26;;;;;;;13.02;8.07;;;;;;;;;;5054612;28;20027;-71
2022/02/06 09:35:19;;;;;;;13.52;7.43;;;;;;;;;;5072501;28;20040;-66
2022/02/06 09:37:46;;;;;;;26.25;12.40;;;;;;;;;;5054496;28;20025;-68
2022/02/06 09:40:15;;;;;;;26.23;12.88;;;;;;;;;;5054525;28;20512;-70
2022/02/06 09:42:42;;;;;;;20.65;10.68;;;;;;;;;;5072535;28;20028;-69
2022/02/06 09:45:10;;;;;;;13.40;7.90;;;;;;;;;;5054261;28;20036;-67
2022/02/06 09:47:37;;;;;;;18.75;9.00;;;;;;;;;;5074864;28;20067;-70
2022/02/06 09:50:04;;;;;;;18.92;8.90;;;;;;;;;;5058271;28;20170;-69
2022/02/06 09:52:30;;;;;;;16.33;8.27;;;;;;;;;;5076352;28;20033;-68
2022/02/06 09:54:57;;;;;;;13.70;6.82;;;;;;;;;;5076125;28;20025;-70
2022/02/06 09:57:27;;;;;;;16.20;8.63;;;;;;;;;;5057948;28;20123;-70
2022/02/06 09:59:54;;;;;;;16.52;8.00;;;;;;;;;;5075997;28;20221;-69
2022/02/06 10:02:25;;;;;;;12.57;6.72;;;;;;;;;;5076022;28;20021;-69
2022/02/06 10:04:53;;;;;;;17.92;7.53;;;;;;;;;;5076076;28;20021;-68
2022/02/06 10:07:25;;;;;;;18.33;9.13;;;;;;;;;;5075897;28;20024;-69
2022/02/06 10:09:53;;;;;;;16.35;9.07;;;;;;;;;;5075877;28;20020;-66
2022/02/06 10:12:21;;;;;;;13.98;8.25;;;13.90;76.90;;;;;;5075851;28;20108;-70
2022/02/06 10:14:47;;;;;;;20.50;10.55;;;14.00;77.00;;;;;;5075792;28;20063;-66
2022/02/06 10:17:13;;;;;;;19.27;10.18;;;14.20;76.80;;;;;;5057696;28;20078;-68
2022/02/06 10:19:53;;;;;;;17.80;8.50;;;14.30;75.60;;;;;;5075463;28;20663;-67
2022/02/06 10:22:26;;;;;;;23.33;10.32;;;14.40;71.60;;;;;;5078580;28;20024;-71
2022/02/06 10:25:19;;;;;;;15.45;8.82;;;14.30;71.60;;;;;;5083558;28;20119;-71
2022/02/06 10:28:01;;;;;;;13.07;7.35;;;14.40;72.20;;;;;;5073939;28;20068;-70
2022/02/06 10:30:39;;;;;;;15.52;7.20;;;14.10;64.40;;;;;;5075139;28;20385;-71
2022/02/06 10:33:24;;;;;;;15.82;8.02;;;14.00;67.20;;;;;;5075349;28;20362;-70
2022/02/06 10:35:53;;;;;;;15.73;7.30;;;;;;;;;;5075551;28;20037;-68
2022/02/06 10:38:30;;;;;;;14.60;7.03;;;;;;;;;;5075449;28;20099;-70
2022/02/06 10:41:13;;;;;;;15.05;5.68;;;14.40;67.20;;;;;;5075512;28;20020;-70
2022/02/06 10:43:53;;;;;;;11.70;6.57;;;;;;;;;;5075338;28;20025;-70
2022/02/06 10:46:19;;;;;;;12.52;6.22;;;;;;;;;;5075132;28;20173;-70
2022/02/06 10:48:50;;;;;;;10.57;6.53;;;;;;;;;;5074844;28;20028;-69
2022/02/06 10:51:43;;;;;;;12.00;5.53;;;15.30;63.20;;;;;;5082432;28;20020;-70
2022/02/06 10:54:17;;;;;;;12.73;5.90;;;17.30;60.70;;;;;;5091177;28;20093;-69
2022/02/06 10:57:10;;;;;;;15.57;8.30;;;16.60;59.40;;;;;;5095074;28;20474;-70
2022/02/06 10:59:53;;;;;;;10.07;5.88;;;;;;;;;;5093787;28;20024;-70
2022/02/06 11:02:27;;;;;;;11.65;7.30;;;16.90;62.20;;;;;;5076880;28;20028;-70
2022/02/06 11:05:18;;;;;;;11.25;6.53;;;18.70;56.20;;;;;;5095215;28;20044;-70
2022/02/06 11:07:51;;;;;;;12.65;7.25;;;18.80;53.00;;;;;;5095067;28;20024;-70
2022/02/06 11:10:17;;;;;;;9.57;6.07;;;;;;;;;;5095166;28;20479;-70
2022/02/06 11:12:50;;;;;;;15.82;8.70;;;19.40;52.70;;;;;;5095010;28;20035;-69
2022/02/06 11:15:29;;;;;;;13.38;7.78;;;20.40;53.30;;;;;;5094480;28;20063;-70
2022/02/06 11:18:09;;;;;;;12.38;7.63;;;19.50;52.90;;;;;;5095250;28;20043;-70
2022/02/06 11:20:36;;;;;;;15.02;8.15;;;;;;;;;;5056835;28;20166;-70
2022/02/06 11:23:03;;;;;;;13.27;7.75;;;18.90;54.80;;;;;;5073404;28;20031;-69
2022/02/06 11:25:33;;;;;;;11.98;5.95;;;;;;;;;;5074167;28;20193;-73
2022/02/06 11:28:01;;;;;;;14.65;7.60;;;18.00;55.60;;;;;;5074174;28;20031;-70
2022/02/06 11:30:28;;;;;;;15.25;8.35;;;;;;;;;;5073907;28;20071;-69
2022/02/06 11:32:54;;;;;;;11.93;7.40;;;;;;;;;;5064090;28;20443;-68
2022/02/06 11:35:24;;;;;;;15.52;7.47;;;;;;;;;;5076010;28;20028;-68
2022/02/06 11:43:55;;;;;;;12.18;5.88;;;17.30;53.60;;;;;;5093999;28;20043;-65
2022/02/06 11:46:48;;;;;;;11.23;6.55;;;15.90;59.90;;;;;;5094080;28;20028;-71
2022/02/06 11:49:15;;;;;;;17.70;9.65;;;;;;;;;;5094138;28;20020;-68
2022/02/06 11:52:08;;;;;;;13.18;7.57;;;;;;;;;;5093894;28;20031;-69
2022/02/06 11:54:35;;;;;;;18.90;8.65;;;;;;;;;;5089724;28;20040;-68
2022/02/06 11:59:42;;;;;;;13.93;6.75;;;15.50;58.60;;;;;;5076158;28;20059;-69
2022/02/06 12:02:27;;;;;;;15.05;7.28;;;16.00;59.60;;;;;;5073575;28;20027;-68
2022/02/06 12:05:27;;;;;;;13.45;6.95;;;15.70;62.30;;;;;;5073387;28;20036;-67
2022/02/06 12:07:53;;;;;;;16.50;7.80;;;;;;;;;;5068131;28;20032;-67
2022/02/06 12:10:20;;;;;;;15.00;6.75;;;;;;;;;;5072115;28;20021;-67
2022/02/06 12:12:49;;;;;;;15.30;6.63;;;;;;;;;;5073992;28;20032;-67
2022/02/06 12:15:29;;;;;;;13.00;6.15;;;15.40;61.10;;;;;;5054967;28;20053;-68
2022/02/06 12:18:08;;;;;;;16.75;8.90;;;;;;;;;;5073484;28;20029;-68
2022/02/06 12:20:55;;;;;;;14.68;7.65;;;;;;;;;;5073423;28;20020;-69
2022/02/06 12:23:41;;;;;;;12.68;6.32;;;17.50;55.70;;;;;;5073605;28;20082;-72
2022/02/06 12:26:40;;;;;;;10.25;6.25;;;15.60;60.70;;;;;;5072467;28;20025;-68
2022/02/06 12:29:09;;;;;;;11.90;6.50;;;;;;;;;;5055166;28;20025;-67
2022/02/06 12:31:59;;;;;;;13.25;6.75;;;;;;;;;;5073146;28;20522;-67
2022/02/06 12:37:28;;;;;;;12.45;6.35;;;;;;;;;;5073321;28;20044;-70
2022/02/06 12:39:59;;;;;;;10.48;6.25;;;;;;;;;;5055024;28;20051;-67
2022/02/06 12:42:26;;;;;;;9.50;6.33;;;;;;;;;;5055067;28;20059;-64
2022/02/06 12:45:06;;;;;;;11.55;6.18;;;;;;;;;;5053548;28;20265;-64
2022/02/06 12:47:33;;;;;;;9.38;5.68;;;;;;;;;;5058328;28;20377;-64
2022/02/06 12:49:59;;;;;;;12.57;7.30;;;;;;;;;;5072863;28;20029;-64
2022/02/06 12:52:26;;;;;;;9.30;5.72;;;;;;;;;;5072774;28;20103;-65
2022/02/06 12:54:52;;;;;;;8.95;5.25;;;;;;;;;;5072699;28;20029;-65
2022/02/06 12:57:20;;;;;;;8.40;5.18;;;;;;;;;;5072689;28;20031;-64
2022/02/06 12:59:47;;;;;;;10.27;5.35;;;15.20;58.70;;;;;;5072385;28;20025;-65
2022/02/06 13:02:15;;;;;;;8.07;4.90;;;16.00;57.80;;;;;;5057566;28;20478;-64
2022/02/06 13:04:58;;;;;;;12.30;5.75;;;15.80;59.30;;;;;;5092466;28;20024;-64
2022/02/06 13:07:29;;;;;;;10.38;6.20;;;;;;;;;;5074530;28;20036;-65
2022/02/06 13:10:02;;;;;;;8.73;5.22;;;;;;;;;;5092688;28;20107;-66
2022/02/06 13:12:36;;;;;;;10.00;6.10;;;;;;;;;;5075600;28;20024;-65
2022/02/06 13:15:54;;;;;;;11.07;6.57;;;15.60;59.70;;;;;;5074156;28;20484;-65
2022/02/06 13:33:52;;;;;;;11.57;5.40;;;;;;;;;;5096650;28;20124;-65
2022/02/06 13:38:52;;;;;;;19.23;11.00;;;15.00;58.20;;;;;;5096413;28;20028;-65
2022/02/06 13:41:23;;;;;;;14.23;7.63;;;;;;;;;;5076348;28;20022;-65
2022/02/06 13:43:51;;;;;;;9.88;5.10;;;14.20;61.50;;;;;;5096146;28;20115;-65
2022/02/06 13:46:23;;;;;;;7.50;4.60;;;14.00;61.30;;;;;;5087287;28;20021;-65
2022/02/06 13:48:49;;;;;;;;;;;14.00;61.40;;;;;;5058681;28;20368;-65
2022/02/06 13:51:17;;;;;;;8.43;5.25;;;14.10;60.50;;;;;;5075985;28;19951;-64
2022/02/06 13:54:05;;;;;;;5.47;3.80;;;14.00;60.90;;;;;;5058146;28;20024;-63
2022/02/06 13:56:33;;;;;;;5.20;3.80;;;13.90;60.40;;;;;;5075638;28;20036;-63
2022/02/06 13:59:04;;;;;;;10.88;4.18;;;13.80;61.50;;;;;;5064305;28;20026;-63
2022/02/06 14:01:40;;;;;;;5.18;3.90;;;13.80;61.50;;;;;;5072088;28;20068;-65
2022/02/06 14:04:17;;;;;;;7.57;4.15;;;13.80;61.60;;;;;;5075683;28;20025;-64
2022/02/06 14:06:48;;;;;;;7.18;5.00;;;13.80;61.70;;;;;;5076151;28;20027;-65
2022/02/06 14:09:26;;;;;;;6.72;3.50;;;13.70;62.90;;;;;;5062371;28;20032;-68
2022/02/06 14:12:01;;;;;;;4.72;3.08;;;13.90;62.50;;;;;;5061209;28;20487;-66
2022/02/06 14:14:28;;;;;;;5.85;3.35;;;14.00;61.60;;;;;;5059083;28;20057;-67
2022/02/06 14:16:56;;;;;;;4.18;3.17;;;13.80;62.70;;;;;;5075610;28;20216;-65
2022/02/06 14:19:41;;;;;;;12.63;3.88;;;13.80;62.40;;;;;;5075728;28;20020;-64
2022/02/06 14:22:07;;;;;;;5.32;3.55;;;13.70;62.00;;;;;;5094200;28;20047;-64
2022/02/06 14:24:49;;;;;;;5.88;3.78;;;13.70;62.70;;;;;;5095652;28;20123;-65
2022/02/06 14:27:28;;;;;;;6.60;3.40;;;13.70;63.40;;;;;;5073451;28;20021;-70
2022/02/06 14:30:17;;;;;;;5.88;3.95;;;13.90;62.50;;;;;;5056847;28;20040;-69
2022/02/06 14:32:56;;;;;;;3.70;3.35;;;13.90;63.40;;;;;;5074105;28;20464;-68
2022/02/06 14:35:27;;;;;;;4.28;3.22;;;13.90;64.60;;;;;;5057053;28;20028;-70
2022/02/06 14:37:56;;;;;;;5.43;3.58;;;13.90;63.60;;;;;;5057294;28;20112;-70
2022/02/06 14:43:14;;;;;;;7.07;4.75;;;14.00;63.60;;;;;;5075012;28;20780;-71
2022/02/06 14:45:56;;;;;;;13.70;7.15;;;14.00;63.30;;;;;;5056912;28;20082;-72
2022/02/06 14:48:25;;;;;;;13.13;7.13;;;14.00;63.70;;;;;;5056821;28;20465;-70
2022/02/06 14:50:52;;;;;;;10.48;6.07;;;14.00;64.00;;;;;;5056516;28;20066;-71
2022/02/06 14:53:20;;;;;;;12.10;7.65;;;14.00;64.40;;;;;;5056738;28;20048;-69
2022/02/06 14:55:48;;;;;;;19.30;9.93;;;14.10;65.20;;;;;;5056176;28;20043;-70
2022/02/06 14:58:14;;;;;;;49.63;24.33;;;;;;;;;;5056497;28;20067;-70
2022/02/06 15:00:41;;;;;;;38.53;20.95;;;15.30;62.80;;;;;;5074954;28;20029;-72
2022/02/06 15:03:08;;;;;;;20.38;11.57;;;;;;;;;;5056747;28;20063;-69
2022/02/06 15:05:35;;;;;;;8.40;6.07;;;15.30;61.90;;;;;;5075060;28;20029;-69
2022/02/06 15:08:02;;;;;;;10.77;5.50;;;;;;;;;;5074885;28;20097;-70
2022/02/06 15:10:28;;;;;;;8.70;4.63;;;;;;;;;;5074318;28;20079;-66
2022/02/06 15:12:55;;;;;;;13.57;6.93;;;;;;;;;;5056507;28;20060;-70
2022/02/06 15:15:21;;;;;;;12.07;6.78;;;14.50;64.40;;;;;;5055666;28;20068;-71
2022/02/06 15:17:50;;;;;;;11.55;5.85;;;;;;;;;;5094242;28;20035;-68
2022/02/06 15:20:16;;;;;;;9.27;5.70;;;15.70;61.70;;;;;;5094371;28;20043;-70
2022/02/06 15:22:42;;;;;;;20.17;9.48;;;;;;;;;;5094569;28;20472;-67
2022/02/06 15:25:10;;;;;;;24.20;10.73;;;;;;;;;;5093790;28;20048;-66
2022/02/06 15:27:36;;;;;;;30.63;13.00;;;15.30;61.50;;;;;;5076494;28;20420;-65
2022/02/06 15:30:02;;;;;;;32.50;16.55;;;14.20;63.50;;;;;;5094671;28;20044;-68
2022/02/06 15:32:28;;;;;;;48.47;21.15;;;13.80;64.70;;;;;;5075998;28;20073;-68
2022/02/06 15:34:54;;;;;;;47.38;21.63;;;13.50;64.70;;;;;;5094126;28;20426;-67
2022/02/06 15:37:20;;;;;;;40.03;19.30;;;13.20;65.70;;;;;;5094148;28;20081;-66
2022/02/06 15:39:46;;;;;;;41.22;21.08;;;;;;;;;;5094245;28;20361;-67
2022/02/06 15:42:15;;;;;;;52.15;26.35;;;;;;;;;;5075715;28;20016;-65
2022/02/06 15:44:46;;;;;;;47.40;25.60;;;13.00;64.50;;;;;;5074552;28;20031;-67
2022/02/06 15:47:12;;;;;;;51.17;26.20;;;12.50;69.40;;;;;;5075832;28;20028;-67
2022/02/06 15:49:38;;;;;;;48.13;25.58;;;12.40;70.10;;;;;;5093985;28;20028;-66
2022/02/06 15:52:06;;;;;;;51.80;26.67;;;12.10;99.90;;;;;;5075648;28;20495;-67
2022/02/06 15:54:33;;;;;;;86.75;44.92;;;;;;;;;;5093783;28;20032;-65
2022/02/06 15:56:59;;;;;;;72.22;38.90;;;;;;;;;;5093584;28;20077;-67
2022/02/06 15:59:25;;;;;;;100.30;49.10;;;;;;;;;;5093965;28;20012;-67
2022/02/06 16:01:52;;;;;;;133.88;64.53;;;;;;;;;;5094139;28;20058;-66
2022/02/06 16:04:19;;;;;;;136.60;66.45;;;;;;;;;;5093401;28;20020;-66
2022/02/06 16:06:45;;;;;;;108.07;50.92;;;;;;;;;;5075425;28;20024;-67
2022/02/06 16:09:12;;;;;;;104.60;49.97;;;;;;;;;;5075637;28;20024;-66
2022/02/06 16:11:38;;;;;;;106.47;53.22;;;;;;;;;;5075511;28;20054;-67
2022/02/06 16:14:05;;;;;;;112.00;55.28;;;;;;;;;;5093593;28;20365;-66
2022/02/06 16:16:32;;;;;;;97.32;49.05;;;;;;;;;;5093566;28;20036;-65
2022/02/06 16:18:58;;;;;;;105.03;52.45;;;;;;;;;;5075428;28;20027;-65
2022/02/06 16:21:25;;;;;;;164.65;81.88;;;;;;;;;;5093448;28;20448;-65
2022/02/06 16:23:51;;;;;;;107.95;50.40;;;;;;;;;;5072753;28;20107;-68
2022/02/06 16:26:18;;;;;;;77.20;39.88;;;;;;;;;;5080962;28;20029;-70
2022/02/06 16:28:49;;;;;;;63.35;31.92;;;;;;;;;;5072877;28;20024;-68
2022/02/06 16:31:16;;;;;;;;;;;;;;;;;;5055138;28;20024;-66
2022/02/06 16:33:42;;;;;;;91.53;51.90;;;;;;;;;;5055054;28;19983;-70
2022/02/06 16:36:08;;;;;;;93.15;48.35;;;;;;;;;;5072621;28;20112;-67
2022/02/06 16:38:34;;;;;;;114.55;53.03;;;;;;;;;;5072877;28;20055;-67
2022/02/06 16:41:00;;;;;;;103.03;52.70;;;;;;;;;;5054687;28;20056;-65
2022/02/06 16:43:27;;;;;;;115.25;56.97;;;;;;;;;;5072458;28;20031;-66
2022/02/06 16:45:53;;;;;;;143.30;64.38;;;;;;;;;;5054711;28;20021;-66
2022/02/06 16:48:19;;;;;;;126.03;60.72;;;;;;;;;;5054653;28;20052;-66
2022/02/06 16:50:46;;;;;;;120.18;57.38;;;;;;;;;;5054568;28;20020;-66
2022/02/06 16:53:13;;;;;;;113.88;54.20;;;;;;;;;;5054695;28;20115;-65
2022/02/06 16:55:39;;;;;;;120.03;58.47;;;;;;;;;;5054028;28;20085;-68